Time;durP1;ratioP1;P1;durP2;ratioP2;P2;SDS_P1;SDS_P2;PMS_P1;PMS_P2;Temp;Humidity;BMP_temperature;BMP_pressure;BME280_temperature;BME280_humidity;BME280_pressure;Samples;Min_cycle;Max_cycle;Signal;HPM_P1;HPM_P2
2023/06/05 00:00:28;;;;;;;7.93;2.88;;;15.60;99.90;;;;;;4181189;28;20164;-91
2023/06/05 00:02:28;;;;;;;9.68;2.90;;;15.60;99.90;;;;;;4165190;28;20206;-91
2023/06/05 00:04:29;;;;;;;10.63;3.40;;;15.50;99.90;;;;;;4180967;28;20171;-92
2023/06/05 00:06:31;;;;;;;10.63;3.28;;;15.40;99.90;;;;;;4164537;28;20196;-91
2023/06/05 00:08:31;;;;;;;6.70;2.90;;;15.50;99.90;;;;;;4166352;28;20183;-91
2023/06/05 00:10:32;;;;;;;14.23;3.30;;;15.50;99.90;;;;;;4167722;28;20179;-91
2023/06/05 00:12:34;;;;;;;11.88;3.20;;;15.50;99.90;;;;;;4168606;28;20176;-91
2023/06/05 00:14:36;;;;;;;7.43;2.75;;;15.30;99.90;;;;;;4167954;28;20552;-90
2023/06/05 00:16:37;;;;;;;11.43;3.28;;;15.20;99.90;;;;;;4167938;28;20187;-91
2023/06/05 00:18:38;;;;;;;9.80;2.65;;;15.10;99.90;;;;;;4184222;28;20168;-90
2023/06/05 00:20:39;;;;;;;10.02;3.25;;;15.20;99.90;;;;;;4168119;28;20172;-92
2023/06/05 00:22:40;;;;;;;10.05;3.42;;;15.30;99.90;;;;;;4168497;28;20219;-91
2023/06/05 00:24:41;;;;;;;7.30;3.33;;;15.30;99.90;;;;;;4185386;28;20175;-90
2023/06/05 00:26:42;;;;;;;6.57;3.15;;;15.10;99.90;;;;;;4184060;28;20199;-91
2023/06/05 00:28:42;;;;;;;8.35;3.30;;;15.10;99.90;;;;;;4167725;28;20271;-91
2023/06/05 00:30:43;;;;;;;10.27;3.25;;;15.10;99.90;;;;;;4167285;28;20271;-92
2023/06/05 00:32:44;;;;;;;10.20;3.15;;;15.20;99.90;;;;;;4184297;28;20168;-91
2023/06/05 00:34:46;;;;;;;13.05;3.45;;;15.20;99.90;;;;;;4183918;28;20206;-89
2023/06/05 00:36:50;;;;;;;10.73;3.55;;;15.20;99.90;;;;;;4183969;28;20718;-91
2023/06/05 00:38:51;;;;;;;10.07;3.45;;;15.10;99.90;;;;;;4184281;28;20187;-91
2023/06/05 00:40:51;;;;;;;9.32;3.75;;;15.00;99.90;;;;;;4168028;28;20196;-91
2023/06/05 00:42:53;;;;;;;8.52;3.40;;;14.90;99.90;;;;;;4167228;28;20343;-90
2023/06/05 00:44:53;;;;;;;7.38;3.25;;;14.90;99.90;;;;;;4167360;28;20184;-90
2023/06/05 00:46:54;;;;;;;10.05;3.95;;;14.80;99.90;;;;;;4167166;28;20288;-91
2023/06/05 00:48:55;;;;;;;10.52;3.50;;;14.80;99.90;;;;;;4167217;28;20206;-90
2023/06/05 00:50:57;;;;;;;9.93;3.47;;;14.80;99.90;;;;;;4167270;28;20218;-90
2023/06/05 00:53:13;;;;;;;7.20;3.15;;;14.70;99.90;;;;;;4184446;28;20270;-90
2023/06/05 00:55:14;;;;;;;9.52;3.58;;;14.60;99.90;;;;;;4183754;28;20726;-91
2023/06/05 00:57:16;;;;;;;14.52;3.88;;;14.60;99.90;;;;;;4167337;28;20188;-90
2023/06/05 00:59:17;;;;;;;11.52;3.42;;;14.50;99.90;;;;;;4183950;28;20263;-90
2023/06/05 01:01:20;;;;;;;11.93;3.92;;;14.40;99.90;;;;;;4167057;28;20235;-90
2023/06/05 01:03:22;;;;;;;15.27;4.07;;;14.40;99.90;;;;;;4167024;28;20812;-91
2023/06/05 01:05:26;;;;;;;10.02;3.80;;;14.40;99.90;;;;;;4167157;28;20176;-90
2023/06/05 01:07:32;;;;;;;11.25;3.85;;;14.40;99.90;;;;;;4183321;28;20707;-90
2023/06/05 01:09:33;;;;;;;12.10;3.70;;;14.40;99.90;;;;;;4183975;28;20230;-90
2023/06/05 01:11:47;;;;;;;10.38;3.80;;;14.40;99.90;;;;;;4183450;28;20175;-90
2023/06/05 01:14:08;;;;;;;14.15;4.18;;;14.40;99.90;;;;;;4167599;28;20279;-91
2023/06/05 01:16:10;;;;;;;15.57;4.03;;;14.30;99.90;;;;;;4183039;28;20358;-91
2023/06/05 01:18:12;;;;;;;13.53;3.93;;;14.20;99.90;;;;;;4182928;28;20186;-90
2023/06/05 01:20:13;;;;;;;9.23;3.85;;;14.20;99.90;;;;;;4184127;28;20225;-91
2023/06/05 01:22:13;;;;;;;9.52;3.97;;;14.20;99.90;;;;;;4183169;28;20184;-91
2023/06/05 01:24:15;;;;;;;8.48;3.80;;;14.10;99.90;;;;;;4183593;28;20641;-90
2023/06/05 01:26:23;;;;;;;10.52;3.80;;;14.00;99.90;;;;;;4166403;28;20195;-90
2023/06/05 01:28:29;;;;;;;7.93;3.92;;;14.00;99.90;;;;;;4183257;28;20174;-91
2023/06/05 01:30:46;;;;;;;8.80;3.67;;;14.00;99.90;;;;;;4166662;28;20172;-91
2023/06/05 01:32:56;;;;;;;9.70;3.72;;;14.00;99.90;;;;;;4166543;28;20180;-90
2023/06/05 01:35:00;;;;;;;10.80;3.95;;;14.00;99.90;;;;;;4166678;28;20171;-90
2023/06/05 01:37:03;;;;;;;9.48;4.72;;;14.00;99.90;;;;;;4166483;28;20195;-91
2023/06/05 01:39:05;;;;;;;7.45;4.18;;;13.90;99.90;;;;;;4166414;28;20287;-92
2023/06/05 01:41:07;;;;;;;16.13;4.10;;;13.90;99.90;;;;;;4166149;28;20215;-91
2023/06/05 01:43:09;;;;;;;12.32;4.00;;;13.90;99.90;;;;;;4166077;28;20208;-90
2023/06/05 01:45:12;;;;;;;16.45;4.53;;;13.90;99.90;;;;;;4182701;28;20272;-90
2023/06/05 01:47:13;;;;;;;9.70;4.40;;;13.80;99.90;;;;;;4166532;28;20203;-91
2023/06/05 01:49:14;;;;;;;11.15;3.95;;;13.80;99.90;;;;;;4167367;28;20176;-90
2023/06/05 01:51:16;;;;;;;12.32;4.07;;;13.70;99.90;;;;;;4166528;28;20173;-90
2023/06/05 01:53:18;;;;;;;9.60;4.30;;;13.70;99.90;;;;;;4183806;28;20199;-91
2023/06/05 01:55:23;;;;;;;7.25;3.78;;;13.70;99.90;;;;;;4182829;28;20180;-90
2023/06/05 01:57:24;;;;;;;14.40;4.55;;;13.70;99.90;;;;;;4166749;28;20215;-91
2023/06/05 01:59:25;;;;;;;8.48;5.13;;;13.70;99.90;;;;;;4166057;28;20621;-92
2023/06/05 02:01:29;;;;;;;10.93;4.28;;;13.60;99.90;;;;;;4182604;28;20182;-90
2023/06/05 02:03:30;;;;;;;19.25;4.88;;;13.60;99.90;;;;;;4182834;28;20735;-91
2023/06/05 02:05:33;;;;;;;12.38;4.40;;;13.60;99.90;;;;;;4165914;28;20174;-92
2023/06/05 02:07:36;;;;;;;8.93;4.40;;;13.60;99.90;;;;;;4165864;28;20212;-91
2023/06/05 02:09:36;;;;;;;8.60;4.07;;;13.50;99.90;;;;;;4166018;28;20184;-91
2023/06/05 02:11:38;;;;;;;12.20;4.40;;;13.50;99.90;;;;;;4165692;28;20195;-90
2023/06/05 02:13:43;;;;;;;11.50;4.68;;;13.50;99.90;;;;;;4165907;28;20180;-90
2023/06/05 02:15:44;;;;;;;17.13;4.50;;;13.60;99.90;;;;;;4165549;28;20168;-90
2023/06/05 02:17:50;;;;;;;7.07;4.07;;;13.60;99.90;;;;;;4182303;28;20183;-91
2023/06/05 02:19:51;;;;;;;11.63;4.67;;;13.50;99.90;;;;;;4166905;28;20255;-90
2023/06/05 02:21:53;;;;;;;8.60;4.80;;;13.50;99.90;;;;;;4166109;28;20199;-90
2023/06/05 02:23:54;;;;;;;16.10;5.13;;;13.50;99.90;;;;;;4183565;28;20207;-91
2023/06/05 02:25:55;;;;;;;9.70;4.32;;;13.40;99.90;;;;;;4166308;28;20196;-92
2023/06/05 02:27:56;;;;;;;10.50;4.85;;;13.40;99.90;;;;;;4182124;28;20172;-90
2023/06/05 02:29:56;;;;;;;12.98;5.15;;;13.40;99.90;;;;;;4165807;28;20176;-91
2023/06/05 02:31:58;;;;;;;12.37;4.90;;;13.40;99.90;;;;;;4181920;28;20182;-91
2023/06/05 02:33:59;;;;;;;12.33;4.40;;;13.40;99.90;;;;;;4182240;28;20171;-91
2023/06/05 02:35:59;;;;;;;8.63;4.73;;;13.50;99.90;;;;;;4165896;28;20262;-91
2023/06/05 02:38:01;;;;;;;8.77;5.00;;;13.50;99.90;;;;;;4165191;28;20227;-91
2023/06/05 02:40:02;;;;;;;14.40;4.83;;;13.50;99.90;;;;;;4165605;28;20203;-91
2023/06/05 02:42:03;;;;;;;10.97;4.60;;;13.50;99.90;;;;;;4181893;28;20758;-90
2023/06/05 02:44:08;;;;;;;13.88;5.07;;;13.50;99.90;;;;;;4165509;28;20176;-91
2023/06/05 02:46:10;;;;;;;10.87;4.87;;;13.50;99.90;;;;;;4181615;28;20671;-91
2023/06/05 02:48:11;;;;;;;13.13;4.90;;;13.40;99.90;;;;;;4181824;28;20599;-91
2023/06/05 02:50:12;;;;;;;13.00;4.97;;;13.40;99.90;;;;;;4181977;28;20168;-90
2023/06/05 02:52:17;;;;;;;12.25;5.15;;;13.40;99.90;;;;;;4165959;28;20698;-90
2023/06/05 02:54:18;;;;;;;15.25;5.03;;;13.40;99.90;;;;;;4181744;28;20172;-90
2023/06/05 02:56:18;;;;;;;13.50;5.10;;;13.40;99.90;;;;;;4165394;28;20211;-91
2023/06/05 02:58:21;;;;;;;12.05;4.85;;;13.40;99.90;;;;;;4181721;28;20164;-91
2023/06/05 03:00:28;;;;;;;16.55;4.75;;;13.30;99.90;;;;;;4166120;28;20257;-91
2023/06/05 03:02:29;;;;;;;12.57;5.18;;;13.40;99.90;;;;;;4165019;28;20767;-90
2023/06/05 03:04:30;;;;;;;10.18;4.80;;;13.40;99.90;;;;;;4165912;28;20156;-91
2023/06/05 03:06:35;;;;;;;16.60;5.22;;;13.30;99.90;;;;;;4181649;28;20207;-91
2023/06/05 03:08:38;;;;;;;12.30;4.72;;;13.30;99.90;;;;;;4181614;28;20179;-90
2023/06/05 03:10:39;;;;;;;15.93;5.60;;;13.20;99.90;;;;;;4181387;28;20532;-90
2023/06/05 03:12:41;;;;;;;10.85;4.80;;;13.30;99.90;;;;;;4165561;28;20259;-91
2023/06/05 03:14:42;;;;;;;10.02;5.10;;;13.20;99.90;;;;;;4164954;28;20180;-90
2023/06/05 03:16:43;;;;;;;11.07;4.82;;;13.30;99.90;;;;;;4166009;28;20279;-90
2023/06/05 03:18:46;;;;;;;12.50;5.15;;;13.30;99.90;;;;;;4182267;28;20180;-91
2023/06/05 03:20:50;;;;;;;11.57;4.85;;;13.20;99.90;;;;;;4181287;28;20167;-90
2023/06/05 03:22:51;;;;;;;14.60;5.40;;;13.20;99.90;;;;;;4181164;28;20218;-90
2023/06/05 03:24:52;;;;;;;12.95;5.30;;;13.20;99.90;;;;;;4164704;28;20176;-91
2023/06/05 03:26:53;;;;;;;10.35;5.05;;;13.00;99.90;;;;;;4181228;28;20341;-90
2023/06/05 03:28:56;;;;;;;8.75;4.75;;;13.10;99.90;;;;;;4165116;28;20183;-90
2023/06/05 03:30:57;;;;;;;12.43;5.32;;;13.00;99.90;;;;;;4180935;28;20183;-90
2023/06/05 03:33:01;;;;;;;14.25;5.18;;;13.00;99.90;;;;;;4182327;28;20178;-91
2023/06/05 03:35:06;;;;;;;14.97;5.33;;;13.10;99.90;;;;;;4181164;28;20244;-90
2023/06/05 03:37:07;;;;;;;8.93;5.10;;;13.20;99.90;;;;;;4182429;28;20434;-92
2023/06/05 03:39:08;;;;;;;10.85;5.15;;;13.30;99.90;;;;;;4164532;28;20769;-89
2023/06/05 03:41:11;;;;;;;14.15;5.03;;;13.30;99.90;;;;;;4181487;28;20181;-91
2023/06/05 03:43:12;;;;;;;13.88;5.20;;;13.20;99.90;;;;;;4180728;28;20246;-90
2023/06/05 03:45:13;;;;;;;8.97;4.90;;;13.10;99.90;;;;;;4164473;28;20168;-89
2023/06/05 03:47:15;;;;;;;13.63;5.20;;;13.10;99.90;;;;;;4164505;28;20204;-91
2023/06/05 03:49:16;;;;;;;12.00;6.00;;;13.00;99.90;;;;;;4164625;28;20168;-90
2023/06/05 03:51:18;;;;;;;11.53;5.73;;;12.90;99.90;;;;;;4165916;28;20250;-92
2023/06/05 03:53:19;;;;;;;10.67;5.70;;;12.90;99.90;;;;;;4165024;28;20171;-90
2023/06/05 03:55:20;;;;;;;12.10;5.27;;;12.90;99.90;;;;;;4164901;28;20183;-91
2023/06/05 03:57:22;;;;;;;12.60;5.70;;;12.90;99.90;;;;;;4165005;28;20275;-90
2023/06/05 03:59:25;;;;;;;12.88;5.97;;;13.00;99.90;;;;;;4181153;28;20214;-92
2023/06/05 04:01:34;;;;;;;16.60;5.93;;;13.10;99.90;;;;;;4165422;28;20620;-91
2023/06/05 04:03:38;;;;;;;12.65;5.20;;;13.20;99.90;;;;;;4165319;28;20211;-91
2023/06/05 04:05:39;;;;;;;16.57;5.67;;;13.10;99.90;;;;;;4182299;28;20164;-89
2023/06/05 04:07:41;;;;;;;9.53;5.53;;;13.20;99.90;;;;;;4182885;28;20179;-90
2023/06/05 04:09:43;;;;;;;13.57;5.60;;;13.10;99.90;;;;;;4182295;28;20163;-89
2023/06/05 04:11:45;;;;;;;14.47;5.70;;;13.10;99.90;;;;;;4164413;28;20191;-91
2023/06/05 04:13:46;;;;;;;10.80;5.57;;;13.00;99.90;;;;;;4164687;28;20180;-90
2023/06/05 04:15:48;;;;;;;18.40;6.33;;;12.90;99.90;;;;;;4165135;28;20274;-91
2023/06/05 04:17:49;;;;;;;11.27;6.20;;;12.80;99.90;;;;;;4165328;28;20168;-90
2023/06/05 04:19:51;;;;;;;14.10;6.53;;;12.80;99.90;;;;;;4181774;28;20222;-91
2023/06/05 04:21:52;;;;;;;14.33;5.93;;;12.80;99.90;;;;;;4181035;28;20172;-91
2023/06/05 04:23:53;;;;;;;14.37;6.37;;;12.70;99.90;;;;;;4181696;28;20245;-89
2023/06/05 04:25:54;;;;;;;18.87;6.43;;;12.70;99.90;;;;;;4180943;28;20247;-89
2023/06/05 04:27:57;;;;;;;19.63;6.53;;;12.80;99.90;;;;;;4183377;28;20606;-89
2023/06/05 04:29:57;;;;;;;15.00;6.40;;;12.80;99.90;;;;;;4164728;28;20215;-89
2023/06/05 04:31:58;;;;;;;10.90;6.33;;;12.70;99.90;;;;;;4183825;28;20179;-89
2023/06/05 04:34:01;;;;;;;20.63;6.57;;;12.70;99.90;;;;;;4181251;28;20187;-90
2023/06/05 04:36:04;;;;;;;12.93;5.97;;;12.70;99.90;;;;;;4180562;28;20191;-91
2023/06/05 04:38:06;;;;;;;9.73;5.83;;;12.70;99.90;;;;;;4164187;28;20184;-91
2023/06/05 04:40:10;;;;;;;16.80;6.37;;;12.70;99.90;;;;;;4166005;28;20271;-91
2023/06/05 04:42:10;;;;;;;14.80;5.90;;;12.60;99.90;;;;;;4164237;28;20176;-91
2023/06/05 04:44:13;;;;;;;10.53;6.40;;;12.60;99.90;;;;;;4166195;28;20327;-91
2023/06/05 04:46:14;;;;;;;14.03;6.40;;;12.70;99.90;;;;;;4200303;28;20198;-90
2023/06/05 04:48:15;;;;;;;14.52;6.20;;;12.80;99.90;;;;;;4181064;28;20525;-90
2023/06/05 04:50:27;;;;;;;13.93;6.47;;;12.80;99.90;;;;;;4180606;28;20197;-90
2023/06/05 04:52:39;;;;;;;13.90;6.37;;;12.80;99.90;;;;;;4166234;28;20619;-90
2023/06/05 04:54:41;;;;;;;12.47;6.07;;;12.80;99.90;;;;;;4164668;28;20175;-90
2023/06/05 04:56:44;;;;;;;12.90;6.50;;;12.90;99.90;;;;;;4167276;28;20215;-90
2023/06/05 04:58:47;;;;;;;11.73;6.13;;;12.90;99.90;;;;;;4168039;28;20549;-89
2023/06/05 05:00:49;;;;;;;13.73;6.63;;;12.80;99.90;;;;;;4183886;28;20225;-91
2023/06/05 05:02:52;;;;;;;15.50;6.63;;;12.80;99.90;;;;;;4168484;28;20215;-90
2023/06/05 05:04:53;;;;;;;15.27;7.00;;;12.80;99.90;;;;;;4167342;28;20180;-92
2023/06/05 05:06:54;;;;;;;14.73;6.63;;;12.80;99.90;;;;;;4167321;28;20211;-91
2023/06/05 05:08:56;;;;;;;13.40;7.60;;;12.80;99.90;;;;;;4167040;28;20264;-90
2023/06/05 05:11:04;;;;;;;15.87;6.90;;;12.90;99.90;;;;;;4185110;28;20174;-91
2023/06/05 05:13:05;;;;;;;11.33;6.40;;;12.80;99.90;;;;;;4184597;28;20172;-93
2023/06/05 05:15:07;;;;;;;20.13;6.35;;;12.80;99.90;;;;;;4168161;28;20169;-92
2023/06/05 05:17:08;;;;;;;18.17;7.07;;;12.80;99.90;;;;;;4184566;28;20188;-91
2023/06/05 05:19:10;;;;;;;10.67;7.30;;;12.90;99.90;;;;;;4169387;28;20184;-92
2023/06/05 05:21:11;;;;;;;11.87;7.37;;;12.90;99.90;;;;;;4166825;28;20173;-91
2023/06/05 05:23:15;;;;;;;18.57;6.97;;;13.00;99.90;;;;;;4184298;28;20215;-91
2023/06/05 05:25:16;;;;;;;12.57;6.57;;;13.00;99.90;;;;;;4184950;28;20295;-91
2023/06/05 05:27:17;;;;;;;10.43;7.03;;;13.10;99.90;;;;;;4168103;28;20196;-90
2023/06/05 05:29:20;;;;;;;12.87;7.07;;;13.10;99.90;;;;;;4166842;28;20177;-92
2023/06/05 05:31:22;;;;;;;12.77;6.77;;;13.20;99.90;;;;;;4183372;28;20172;-90
2023/06/05 05:33:24;;;;;;;10.40;6.87;;;13.10;99.90;;;;;;4185529;28;20537;-90
2023/06/05 05:35:25;;;;;;;12.77;7.07;;;13.20;99.90;;;;;;4169551;28;20236;-89
2023/06/05 05:37:26;;;;;;;11.07;6.88;;;13.30;99.90;;;;;;4167046;28;20195;-90
2023/06/05 05:39:26;;;;;;;11.82;7.18;;;13.40;99.90;;;;;;4167932;28;20172;-90
2023/06/05 05:41:31;;;;;;;13.97;7.53;;;13.40;99.90;;;;;;4166601;28;20234;-92
2023/06/05 05:43:32;;;;;;;12.63;7.00;;;13.50;99.90;;;;;;4167038;28;20251;-90
2023/06/05 05:45:33;;;;;;;17.77;7.00;;;13.50;99.90;;;;;;4166611;28;20172;-91
2023/06/05 05:47:33;;;;;;;15.60;7.78;;;13.60;99.90;;;;;;4166313;28;20172;-92
2023/06/05 05:49:34;;;;;;;16.13;7.10;;;13.60;99.90;;;;;;4186607;28;20179;-91
2023/06/05 05:51:35;;;;;;;10.93;8.23;;;13.50;99.90;;;;;;4166886;28;20226;-90
2023/06/05 05:53:36;;;;;;;15.55;7.60;;;13.60;99.90;;;;;;4166176;28;20183;-90
2023/06/05 05:55:40;;;;;;;16.13;7.90;;;13.50;99.90;;;;;;4167268;28;20164;-93
2023/06/05 05:57:41;;;;;;;15.83;7.87;;;13.50;99.90;;;;;;4183043;28;20168;-91
2023/06/05 05:59:44;;;;;;;14.73;7.07;;;13.60;99.90;;;;;;4167051;28;20273;-90
2023/06/05 06:01:45;;;;;;;13.57;8.10;;;13.60;99.90;;;;;;4167823;28;20165;-93
2023/06/05 06:03:47;;;;;;;13.82;7.20;;;13.60;99.90;;;;;;4167245;28;20347;-92
2023/06/05 06:05:47;;;;;;;13.38;8.05;;;13.70;99.90;;;;;;4169776;28;20176;-90
2023/06/05 06:07:50;;;;;;;14.32;8.20;;;13.90;99.90;;;;;;4183868;28;20696;-89
2023/06/05 06:09:50;;;;;;;11.27;7.28;;;14.00;99.90;;;;;;4184032;28;20230;-90
2023/06/05 06:11:55;;;;;;;17.90;7.70;;;14.00;99.90;;;;;;4183682;28;20595;-90
2023/06/05 06:13:55;;;;;;;11.52;7.05;;;14.20;99.90;;;;;;4166989;28;20182;-90
2023/06/05 06:15:56;;;;;;;12.32;7.28;;;14.40;99.90;;;;;;4167398;28;20188;-91
2023/06/05 06:17:57;;;;;;;15.80;7.35;;;14.30;99.90;;;;;;4185571;28;20180;-90
2023/06/05 06:19:57;;;;;;;17.92;7.47;;;14.40;99.90;;;;;;4167676;28;20233;-90
2023/06/05 06:21:58;;;;;;;18.77;7.93;;;14.40;99.90;;;;;;4186002;28;20208;-91
2023/06/05 06:23:59;;;;;;;13.65;7.60;;;14.60;99.90;;;;;;4166319;28;20204;-91
2023/06/05 06:26:00;;;;;;;15.88;7.88;;;14.70;99.90;;;;;;4185393;28;20194;-94
2023/06/05 06:28:01;;;;;;;12.18;7.32;;;14.80;99.90;;;;;;4184656;28;20172;-93
2023/06/05 06:30:07;;;;;;;25.88;7.35;;;14.80;99.90;;;;;;4184365;28;20178;-91
2023/06/05 06:32:09;;;;;;;15.05;7.28;;;14.90;99.90;;;;;;4184179;28;20178;-90
2023/06/05 06:34:10;;;;;;;12.32;7.78;;;14.80;99.90;;;;;;4168889;28;20172;-91
2023/06/05 06:36:12;;;;;;;13.45;6.88;;;14.80;99.90;;;;;;4165392;28;20203;-91
2023/06/05 06:38:12;;;;;;;15.68;7.75;;;14.80;99.90;;;;;;4166855;28;20195;-93
2023/06/05 06:40:14;;;;;;;14.52;7.50;;;14.80;99.90;;;;;;4184950;28;20547;-90
2023/06/05 06:42:15;;;;;;;16.42;7.18;;;14.90;99.90;;;;;;4198848;28;20175;-90
2023/06/05 06:44:25;;;;;;;16.45;7.47;;;14.90;99.90;;;;;;4167394;28;20174;-91
2023/06/05 06:46:26;;;;;;;14.93;7.47;;;14.90;99.90;;;;;;4181956;28;20286;-90
2023/06/05 06:48:27;;;;;;;13.98;7.75;;;15.00;99.90;;;;;;4165697;28;20180;-90
2023/06/05 06:50:27;;;;;;;13.95;7.13;;;15.20;99.90;;;;;;4165491;28;20176;-90
2023/06/05 06:52:28;;;;;;;20.48;7.40;;;15.30;99.90;;;;;;4182598;28;20160;-90
2023/06/05 06:54:29;;;;;;;15.45;7.10;;;15.40;99.90;;;;;;4165539;28;20176;-90
2023/06/05 06:56:30;;;;;;;15.70;7.20;;;15.60;99.90;;;;;;4167142;28;20234;-92
2023/06/05 06:58:31;;;;;;;12.15;7.22;;;15.60;99.90;;;;;;4181842;28;20179;-90
2023/06/05 07:00:31;;;;;;;10.02;6.75;;;15.60;99.90;;;;;;4165640;28;20266;-92
2023/06/05 07:02:32;;;;;;;18.15;8.05;;;15.70;99.90;;;;;;4182813;28;20189;-91
2023/06/05 07:04:33;;;;;;;10.05;7.10;;;15.70;99.90;;;;;;4167025;28;20175;-90
2023/06/05 07:06:35;;;;;;;14.40;7.18;;;15.60;99.90;;;;;;4166938;28;20187;-91
2023/06/05 07:08:36;;;;;;;12.75;6.28;;;15.60;99.90;;;;;;4165475;28;20175;-92
2023/06/05 07:10:37;;;;;;;13.43;7.97;;;15.50;99.90;;;;;;4182830;28;20179;-91
2023/06/05 07:12:39;;;;;;;12.38;7.25;;;16.00;99.90;;;;;;4165583;28;20218;-90
2023/06/05 07:14:40;;;;;;;14.45;7.35;;;16.80;99.90;;;;;;4182950;28;20229;-91
2023/06/05 07:16:41;;;;;;;13.40;6.85;;;17.60;99.90;;;;;;4168227;28;20172;-91
2023/06/05 07:18:43;;;;;;;15.65;6.72;;;18.00;99.90;;;;;;4165221;28;20588;-91
2023/06/05 07:20:47;;;;;;;10.88;6.30;;;18.50;99.90;;;;;;4182416;28;20190;-90
2023/06/05 07:22:48;;;;;;;9.55;5.88;;;18.70;99.90;;;;;;4181471;28;20211;-90
2023/06/05 07:24:49;;;;;;;13.23;7.10;;;18.90;99.90;;;;;;4165282;28;20173;-92
2023/06/05 07:26:52;;;;;;;11.30;6.07;;;19.10;99.90;;;;;;4166261;28;20202;-91
2023/06/05 07:28:55;;;;;;;14.43;6.13;;;19.70;99.90;;;;;;4184711;28;20199;-93
2023/06/05 07:31:03;;;;;;;11.27;6.45;;;20.00;99.90;;;;;;4186949;28;20253;-94
2023/06/05 07:33:04;;;;;;;13.75;6.65;;;19.90;99.90;;;;;;4184195;28;20167;-93
2023/06/05 07:35:08;;;;;;;9.40;5.93;;;19.70;99.90;;;;;;4166791;28;20194;-93
2023/06/05 07:37:09;;;;;;;11.90;5.93;;;19.80;99.90;;;;;;4185309;28;20675;-95
2023/06/05 07:39:13;;;;;;;13.02;6.50;;;20.10;99.90;;;;;;4182640;28;20289;-94
2023/06/05 07:41:28;;;;;;;16.33;6.40;;;20.30;99.90;;;;;;4167161;28;20175;-92
2023/06/05 07:43:29;;;;;;;10.15;5.68;;;20.10;99.90;;;;;;4182777;28;20223;-91
2023/06/05 07:45:36;;;;;;;17.65;6.70;;;20.10;99.90;;;;;;4164923;28;20171;-93
2023/06/05 07:47:36;;;;;;;10.60;6.40;;;20.10;99.90;;;;;;4164988;28;20222;-93
2023/06/05 07:49:41;;;;;;;12.43;5.70;;;20.20;99.90;;;;;;4181982;28;20261;-95
2023/06/05 07:51:44;;;;;;;10.90;6.30;;;20.50;99.90;;;;;;4181932;28;20160;-94
2023/06/05 07:54:10;;;;;;;14.02;5.72;;;20.50;99.90;;;;;;4167856;28;20168;-93
2023/06/05 07:56:11;;;;;;;15.90;5.72;;;20.60;99.90;;;;;;4182874;28;20290;-95
2023/06/05 07:58:16;;;;;;;9.35;5.93;;;20.90;99.90;;;;;;4183912;28;20497;-94
2023/06/05 08:00:19;;;;;;;11.23;6.00;;;21.10;99.90;;;;;;4182793;28;20171;-92
2023/06/05 08:02:20;;;;;;;8.95;5.95;;;21.30;99.90;;;;;;4165142;28;20172;-93
2023/06/05 08:04:24;;;;;;;10.70;5.80;;;21.30;99.90;;;;;;4180944;28;20690;-93
2023/06/05 08:06:32;;;;;;;10.98;6.07;;;21.40;99.90;;;;;;4181277;28;20547;-93
2023/06/05 08:08:40;;;;;;;11.90;6.22;;;21.50;99.90;;;;;;4168927;28;20181;-93
2023/06/05 08:10:42;;;;;;;12.77;6.25;;;21.80;99.90;;;;;;4183617;28;20175;-93
2023/06/05 08:12:43;;;;;;;11.25;6.40;;;22.10;99.90;;;;;;4185073;28;20172;-95
2023/06/05 08:14:44;;;;;;;11.52;6.30;;;22.50;99.90;;;;;;4165097;28;20171;-93
2023/06/05 08:16:48;;;;;;;24.60;6.88;;;22.60;99.90;;;;;;4180926;28;20282;-94
2023/06/05 08:18:49;;;;;;;10.18;6.68;;;22.70;99.90;;;;;;4165608;28;20183;-92
2023/06/05 08:20:55;;;;;;;14.15;6.43;;;22.50;99.90;;;;;;4166733;28;20172;-93
2023/06/05 08:22:57;;;;;;;17.00;6.72;;;22.10;99.90;;;;;;4181639;28;20207;-93
2023/06/05 08:24:59;;;;;;;12.68;6.75;;;22.00;99.90;;;;;;4165496;28;20218;-93
2023/06/05 08:27:01;;;;;;;14.32;6.30;;;22.20;99.90;;;;;;4166943;28;20184;-94
2023/06/05 08:29:02;;;;;;;14.65;6.25;;;22.60;99.90;;;;;;4164791;28;20177;-93
2023/06/05 08:31:05;;;;;;;12.68;6.38;;;22.70;99.90;;;;;;4185794;28;20242;-94
2023/06/05 08:33:10;;;;;;;14.32;6.45;;;22.70;99.90;;;;;;4185246;28;20267;-95
2023/06/05 08:35:14;;;;;;;17.58;6.40;;;22.60;99.90;;;;;;4168336;28;20587;-95
2023/06/05 08:37:16;;;;;;;10.85;6.65;;;22.70;99.90;;;;;;4170709;28;20204;-94
2023/06/05 08:39:17;;;;;;;10.40;6.32;;;22.60;99.90;;;;;;4170969;28;20182;-93
2023/06/05 08:41:20;;;;;;;14.68;7.28;;;22.40;99.90;;;;;;4187447;28;20635;-95
2023/06/05 08:43:21;;;;;;;12.65;6.55;;;22.30;99.90;;;;;;4168365;28;20664;-93
2023/06/05 08:45:25;;;;;;;11.23;6.63;;;22.70;99.90;;;;;;4184007;28;20648;-94
2023/06/05 08:47:44;;;;;;;12.77;7.45;;;22.70;99.90;;;;;;4184926;28;20178;-94
2023/06/05 08:50:04;;;;;;;12.57;6.47;;;22.40;99.90;;;;;;4184370;28;20167;-94
2023/06/05 08:52:29;;;;;;;16.88;6.70;;;22.30;99.90;;;;;;4202055;28;20183;-94
2023/06/05 08:54:38;;;;;;;12.23;6.57;;;22.90;99.90;;;;;;4168249;28;20168;-93
2023/06/05 08:56:41;;;;;;;13.02;6.70;;;22.80;99.90;;;;;;4186130;28;20202;-93
2023/06/05 08:58:48;;;;;;;12.75;6.80;;;22.80;99.90;;;;;;4168530;28;20628;-92
2023/06/05 09:00:52;;;;;;;17.40;7.07;;;22.80;99.90;;;;;;4169144;28;20283;-93
2023/06/05 09:02:53;;;;;;;14.50;6.63;;;22.80;99.90;;;;;;4167619;28;20208;-94
2023/06/05 09:05:03;;;;;;;19.35;6.68;;;22.90;99.90;;;;;;4183510;28;20687;-94
2023/06/05 09:07:04;;;;;;;16.02;6.53;;;23.00;99.90;;;;;;4168720;28;20199;-95
2023/06/05 09:09:07;;;;;;;31.13;7.10;;;23.00;99.90;;;;;;4183517;28;20266;-94
2023/06/05 09:11:24;;;;;;;10.07;6.10;;;23.10;99.90;;;;;;4200271;28;20167;-93
2023/06/05 09:13:44;;;;;;;12.98;6.22;;;22.80;99.90;;;;;;4184158;28;20183;-93
2023/06/05 09:15:53;;;;;;;15.80;6.38;;;22.30;99.90;;;;;;4172989;28;20218;-94
2023/06/05 09:18:15;;;;;;;10.68;6.65;;;22.10;99.90;;;;;;4186620;28;20183;-93
2023/06/05 09:20:25;;;;;;;13.30;6.70;;;22.10;99.90;;;;;;4166575;28;20172;-94
2023/06/05 09:22:35;;;;;;;12.50;6.40;;;22.40;99.90;;;;;;4166613;28;20587;-93
2023/06/05 09:24:37;;;;;;;16.13;6.40;;;22.70;99.90;;;;;;4167082;28;20168;-94
2023/06/05 09:26:59;;;;;;;14.57;6.13;;;22.70;99.90;;;;;;4184939;28;20202;-93
2023/06/05 09:29:02;;;;;;;10.88;6.18;;;22.40;99.90;;;;;;4167425;28;20168;-95
2023/06/05 09:31:10;;;;;;;24.17;7.47;;;22.30;99.90;;;;;;4184835;28;20214;-94
2023/06/05 09:33:10;;;;;;;14.98;7.03;;;22.40;99.90;;;;;;4169162;28;20174;-93
2023/06/05 09:35:23;;;;;;;11.75;6.50;;;22.40;99.90;;;;;;4167050;28;20266;-93
2023/06/05 09:37:36;;;;;;;9.63;6.07;;;22.60;99.90;;;;;;4167941;28;20188;-94
2023/06/05 09:39:44;;;;;;;15.55;6.93;;;22.90;99.90;;;;;;4183765;28;20186;-94
2023/06/05 09:41:48;;;;;;;13.35;5.85;;;23.30;99.90;;;;;;4166317;28;20167;-92
2023/06/05 09:43:52;;;;;;;16.45;6.28;;;23.10;99.90;;;;;;4167449;28;20220;-92
2023/06/05 09:45:53;;;;;;;15.18;6.53;;;23.00;99.90;;;;;;4168117;28;20184;-92
2023/06/05 09:48:17;;;;;;;11.50;6.70;;;23.00;99.90;;;;;;4187091;28;20225;-93
2023/06/05 09:50:27;;;;;;;13.65;6.70;;;23.20;99.90;;;;;;4200439;28;20197;-94
2023/06/05 09:52:30;;;;;;;17.65;6.95;;;23.30;99.90;;;;;;4185126;28;20171;-92
2023/06/05 09:54:31;;;;;;;16.17;6.75;;;23.40;99.90;;;;;;4168053;28;20196;-94
2023/06/05 09:56:33;;;;;;;17.83;7.15;;;23.60;99.90;;;;;;4182644;28;20203;-92
2023/06/05 09:58:35;;;;;;;12.18;6.00;;;23.50;99.90;;;;;;4167574;28;20386;-95
2023/06/05 10:00:41;;;;;;;17.85;6.20;;;23.40;99.90;;;;;;4184558;28;20186;-94
2023/06/05 10:02:47;;;;;;;56.75;7.50;;;23.60;99.90;;;;;;4182870;28;20236;-94
2023/06/05 10:05:00;;;;;;;93.28;9.45;;;23.80;99.90;;;;;;4167635;28;20180;-95
2023/06/05 10:07:07;;;;;;;10.52;6.32;;;23.90;99.90;;;;;;4183477;28;20183;-95
2023/06/05 10:09:09;;;;;;;18.52;6.70;;;24.10;99.90;;;;;;4167975;28;20184;-93
2023/06/05 10:11:14;;;;;;;16.73;6.90;;;24.20;99.90;;;;;;4182558;28;20187;-93
2023/06/05 10:13:15;;;;;;;11.38;6.65;;;24.40;99.90;;;;;;4168675;28;20187;-92
2023/06/05 10:15:17;;;;;;;23.27;7.25;;;24.20;99.90;;;;;;4183550;28;20175;-94
2023/06/05 10:17:19;;;;;;;11.25;6.07;;;23.90;99.90;;;;;;4183990;28;20201;-94
2023/06/05 10:19:20;;;;;;;17.25;5.85;;;23.70;99.90;;;;;;4166484;28;20668;-92
2023/06/05 10:21:21;;;;;;;10.45;6.32;;;23.70;99.90;;;;;;4171012;28;20191;-94
2023/06/05 10:23:22;;;;;;;10.88;6.38;;;23.50;99.90;;;;;;4183586;28;20207;-93
2023/06/05 10:25:24;;;;;;;12.07;6.10;;;23.10;99.90;;;;;;4183571;28;20178;-92
2023/06/05 10:28:09;;;;;;;14.25;5.50;;;22.80;99.90;;;;;;4165657;28;20192;-93
2023/06/05 10:30:46;;;;;;;25.20;7.60;;;22.70;99.90;;;;;;4187409;28;20183;-92
2023/06/05 10:33:29;;;;;;;26.40;6.38;;;22.60;99.90;;;;;;4166338;28;20192;-93
2023/06/05 10:36:00;;;;;;;10.30;6.50;;;22.50;99.90;;;;;;4168727;28;20211;-93